Time;durP1;ratioP1;P1;durP2;ratioP2;P2;SDS_P1;SDS_P2;PMS_P1;PMS_P2;Temp;Humidity;BMP_temperature;BMP_pressure;BME280_temperature;BME280_humidity;BME280_pressure;Samples;Min_cycle;Max_cycle;Signal;HPM_P1;HPM_P2
2022/01/07 00:01:25;;;;;;;5.88;3.97;;;19.90;46.30;;;;;;6269475;28;20044;-68
2022/01/07 00:04:26;;;;;;;6.50;3.80;;;19.90;46.30;;;;;;6269468;28;20060;-69
2022/01/07 00:07:27;;;;;;;4.90;3.50;;;19.90;46.30;;;;;;6272029;28;20024;-68
2022/01/07 00:10:27;;;;;;;5.28;3.35;;;19.90;46.30;;;;;;6279670;28;20390;-68
2022/01/07 00:13:28;;;;;;;4.85;3.38;;;19.90;46.30;;;;;;6269423;28;20502;-68
2022/01/07 00:16:29;;;;;;;4.53;3.40;;;19.90;46.30;;;;;;6268958;28;20486;-68
2022/01/07 00:19:29;;;;;;;4.97;3.42;;;19.90;46.30;;;;;;6268003;28;20104;-68
2022/01/07 00:22:30;;;;;;;6.30;3.53;;;19.90;47.00;;;;;;6269028;28;20032;-68
2022/01/07 00:25:31;;;;;;;5.15;3.53;;;19.90;46.30;;;;;;6278679;28;20074;-68
2022/01/07 00:28:32;;;;;;;6.28;3.88;;;19.90;46.30;;;;;;6292376;28;20115;-68
2022/01/07 00:31:33;;;;;;;5.47;3.28;;;19.90;46.30;;;;;;6271833;28;20367;-68
2022/01/07 00:34:33;;;;;;;5.53;3.78;;;19.90;46.30;;;;;;6267328;28;20056;-69
2022/01/07 00:37:35;;;;;;;5.25;3.88;;;19.90;46.30;;;;;;6269017;28;20382;-68
2022/01/07 00:40:35;;;;;;;6.30;3.58;;;19.90;46.30;;;;;;6268194;28;20055;-68
2022/01/07 00:43:36;;;;;;;5.25;3.60;;;19.90;46.30;;;;;;6267919;28;20021;-68
2022/01/07 00:46:36;;;;;;;5.03;3.13;;;19.90;46.30;;;;;;6266997;28;20079;-65
2022/01/07 00:49:37;;;;;;;5.28;3.55;;;19.90;46.40;;;;;;6268600;28;20033;-67
2022/01/07 00:52:38;;;;;;;5.80;3.33;;;19.90;46.40;;;;;;6268376;28;20021;-67
2022/01/07 00:55:38;;;;;;;4.65;3.22;;;19.90;46.50;;;;;;6267241;28;20474;-66
2022/01/07 00:58:39;;;;;;;5.38;3.40;;;19.80;46.40;;;;;;6268288;28;20060;-69
2022/01/07 01:01:40;;;;;;;6.25;3.50;;;19.90;46.40;;;;;;6268404;28;20049;-69
2022/01/07 01:04:44;;;;;;;5.70;3.78;;;19.80;46.30;;;;;;6267306;28;20082;-66
2022/01/07 01:07:45;;;;;;;5.32;3.60;;;19.80;46.40;;;;;;6268332;28;20032;-69
2022/01/07 01:10:46;;;;;;;5.15;3.92;;;19.80;46.30;;;;;;6282895;28;20074;-66
2022/01/07 01:13:47;;;;;;;5.13;3.30;;;19.80;46.40;;;;;;6268223;28;20386;-67
2022/01/07 01:16:47;;;;;;;4.70;3.08;;;19.80;46.40;;;;;;6268006;28;20040;-67
2022/01/07 01:19:49;;;;;;;4.43;3.38;;;19.80;46.30;;;;;;6267932;28;20021;-70
2022/01/07 01:22:50;;;;;;;5.30;3.22;;;19.90;46.40;;;;;;6268056;28;20388;-68
2022/01/07 01:25:51;;;;;;;4.50;3.28;;;19.80;46.30;;;;;;6266669;28;20029;-69
2022/01/07 01:28:52;;;;;;;5.15;3.50;;;19.80;46.30;;;;;;6268134;28;20025;-67
2022/01/07 01:31:52;;;;;;;5.72;3.30;;;19.80;46.40;;;;;;6270806;28;20032;-70
2022/01/07 01:34:53;;;;;;;4.85;3.42;;;19.80;46.40;;;;;;6273634;28;20043;-67
2022/01/07 01:37:54;;;;;;;4.90;3.28;;;19.80;46.40;;;;;;6272903;28;20032;-68
2022/01/07 01:40:54;;;;;;;5.43;3.53;;;19.80;46.40;;;;;;6272814;28;20029;-70
2022/01/07 01:43:56;;;;;;;4.90;3.20;;;19.80;46.30;;;;;;6273737;28;20047;-67
2022/01/07 01:46:58;;;;;;;4.97;3.28;;;19.80;46.40;;;;;;6272994;28;20031;-67
2022/01/07 01:49:58;;;;;;;4.50;3.20;;;19.80;46.40;;;;;;6273053;28;20354;-69
2022/01/07 01:53:00;;;;;;;5.10;3.42;;;19.80;46.40;;;;;;6272671;28;20032;-67
2022/01/07 01:56:00;;;;;;;4.72;3.28;;;19.80;46.40;;;;;;6272882;28;20386;-67
2022/01/07 01:59:01;;;;;;;6.22;3.55;;;19.80;46.50;;;;;;6272949;28;20032;-68
2022/01/07 02:02:02;;;;;;;4.82;2.95;;;19.80;46.50;;;;;;6272284;28;20047;-68
2022/01/07 02:05:04;;;;;;;5.30;3.30;;;19.80;46.50;;;;;;6273074;28;20410;-66
2022/01/07 02:08:04;;;;;;;3.55;2.90;;;19.80;46.40;;;;;;6272322;28;20482;-68
2022/01/07 02:11:05;;;;;;;6.65;3.20;;;19.80;46.50;;;;;;6272480;28;20031;-69
2022/01/07 02:14:06;;;;;;;4.30;2.80;;;19.80;46.40;;;;;;6272158;28;20721;-67
2022/01/07 02:17:08;;;;;;;4.47;3.03;;;19.80;46.50;;;;;;6272307;28;20070;-67
2022/01/07 02:20:10;;;;;;;5.25;3.33;;;19.80;46.40;;;;;;6271948;28;20025;-68
2022/01/07 02:23:10;;;;;;;4.03;3.00;;;19.80;46.40;;;;;;6272101;28;20370;-69
2022/01/07 02:26:12;;;;;;;3.80;2.72;;;19.80;46.50;;;;;;6272026;28;20249;-67
2022/01/07 02:29:13;;;;;;;4.07;2.85;;;19.80;46.50;;;;;;6272057;28;20025;-66
2022/01/07 02:32:15;;;;;;;4.10;2.95;;;19.80;46.50;;;;;;6271457;28;20086;-68
2022/01/07 02:35:17;;;;;;;4.00;2.72;;;19.80;46.50;;;;;;6271123;28;20116;-67
2022/01/07 02:38:18;;;;;;;4.70;3.17;;;19.80;46.50;;;;;;6278239;28;20029;-68
2022/01/07 02:41:18;;;;;;;5.35;3.30;;;19.80;46.60;;;;;;6271510;28;20102;-67
2022/01/07 02:44:19;;;;;;;4.40;3.05;;;19.80;46.60;;;;;;6271085;28;20029;-67
2022/01/07 02:47:21;;;;;;;4.88;3.17;;;19.80;46.60;;;;;;6271632;28;20382;-68
2022/01/07 02:50:33;;;;;;;4.70;3.08;;;19.80;46.60;;;;;;6270224;28;20078;-68
2022/01/07 02:53:34;;;;;;;4.55;3.20;;;19.80;46.60;;;;;;6271056;28;20025;-69
2022/01/07 02:56:36;;;;;;;3.80;2.75;;;19.80;46.60;;;;;;6271317;28;20025;-67
2022/01/07 02:59:36;;;;;;;4.13;2.90;;;19.80;46.60;;;;;;6269677;28;20025;-67
2022/01/07 03:02:37;;;;;;;4.60;3.25;;;19.80;46.60;;;;;;6270973;28;20029;-68
2022/01/07 03:05:41;;;;;;;4.65;3.22;;;19.80;46.60;;;;;;6271293;28;20025;-71
2022/01/07 03:08:46;;;;;;;4.25;3.03;;;19.80;46.60;;;;;;6271138;28;20418;-69
2022/01/07 03:11:46;;;;;;;4.40;3.25;;;19.80;46.60;;;;;;6270829;28;20048;-70
2022/01/07 03:14:49;;;;;;;4.38;3.03;;;19.80;46.60;;;;;;6282934;28;20059;-68
2022/01/07 03:17:49;;;;;;;4.65;2.92;;;19.80;46.50;;;;;;6287175;28;20041;-67
2022/01/07 03:20:50;;;;;;;5.32;3.10;;;19.80;46.60;;;;;;6270772;28;20039;-67
2022/01/07 03:23:50;;;;;;;4.15;2.88;;;19.80;46.60;;;;;;6270631;28;20033;-67
2022/01/07 03:26:51;;;;;;;5.10;3.15;;;19.80;46.60;;;;;;6270597;28;20047;-68
2022/01/07 03:29:52;;;;;;;3.53;2.53;;;19.80;46.60;;;;;;6270150;28;20036;-69
2022/01/07 03:32:52;;;;;;;4.60;3.30;;;19.80;46.60;;;;;;6270182;28;20025;-70
2022/01/07 03:35:54;;;;;;;4.53;2.92;;;19.80;46.60;;;;;;6270143;28;20079;-67
2022/01/07 03:38:56;;;;;;;5.30;3.20;;;19.80;46.60;;;;;;6270442;28;20518;-68
2022/01/07 03:41:57;;;;;;;4.50;3.22;;;19.80;46.60;;;;;;6270099;28;20025;-68
2022/01/07 03:44:58;;;;;;;3.88;2.70;;;19.80;46.70;;;;;;6268856;28;20402;-67
2022/01/07 03:47:58;;;;;;;4.63;3.00;;;19.80;46.60;;;;;;6288467;28;20358;-67
2022/01/07 03:51:00;;;;;;;7.00;3.03;;;19.80;46.70;;;;;;6286583;28;20436;-68
2022/01/07 03:54:00;;;;;;;3.83;2.85;;;19.80;46.70;;;;;;6270433;28;20478;-69
2022/01/07 03:57:01;;;;;;;3.83;2.85;;;19.80;46.70;;;;;;6270064;28;20036;-68
2022/01/07 04:00:42;;;;;;;5.03;3.17;;;19.80;46.70;;;;;;6269515;28;20043;-68
2022/01/07 04:03:43;;;;;;;4.95;3.05;;;19.80;46.70;;;;;;6269944;28;20017;-66
2022/01/07 04:06:43;;;;;;;4.68;2.75;;;19.80;46.70;;;;;;6269766;28;20350;-67
2022/01/07 04:09:44;;;;;;;3.70;2.67;;;19.80;46.70;;;;;;6269903;28;20021;-67
2022/01/07 04:12:44;;;;;;;4.68;2.72;;;19.80;46.70;;;;;;6269349;28;20101;-68
2022/01/07 04:15:45;;;;;;;5.47;3.10;;;19.80;46.70;;;;;;6270412;28;20651;-67
2022/01/07 04:18:46;;;;;;;3.63;2.53;;;19.70;46.60;;;;;;6274264;28;20373;-65
2022/01/07 04:21:47;;;;;;;4.38;2.90;;;19.80;46.70;;;;;;6270257;28;20075;-70
2022/01/07 04:24:48;;;;;;;4.03;2.88;;;19.80;46.60;;;;;;6269178;28;20032;-67
2022/01/07 04:27:52;;;;;;;5.20;3.10;;;19.70;46.80;;;;;;6271289;28;20398;-68
2022/01/07 04:30:52;;;;;;;4.43;2.83;;;19.80;46.70;;;;;;6267697;28;20025;-69
2022/01/07 04:33:53;;;;;;;3.72;2.72;;;19.70;46.60;;;;;;6267481;28;20501;-68
2022/01/07 04:36:53;;;;;;;4.55;2.70;;;19.70;46.60;;;;;;6269111;28;20033;-68
2022/01/07 04:39:54;;;;;;;3.45;2.65;;;19.70;46.60;;;;;;6268545;28;20029;-68
2022/01/07 04:42:55;;;;;;;4.50;2.83;;;19.70;46.60;;;;;;6268959;28;20044;-68
2022/01/07 04:45:55;;;;;;;4.68;2.60;;;19.70;46.50;;;;;;6269175;28;20410;-68
2022/01/07 04:48:56;;;;;;;3.38;2.67;;;19.70;46.60;;;;;;6268367;28;20037;-68
2022/01/07 04:51:57;;;;;;;4.32;2.88;;;19.70;46.60;;;;;;6262190;28;20108;-68
2022/01/07 04:54:58;;;;;;;4.18;2.53;;;19.70;46.50;;;;;;6257455;28;20116;-68
2022/01/07 04:57:58;;;;;;;4.07;2.55;;;19.70;46.60;;;;;;6267947;28;20025;-68
2022/01/07 05:00:59;;;;;;;4.13;2.90;;;19.70;46.60;;;;;;6267021;28;20508;-68
2022/01/07 05:03:59;;;;;;;3.65;2.42;;;19.70;46.60;;;;;;6268777;28;20089;-68
2022/01/07 05:07:00;;;;;;;4.07;2.55;;;19.70;46.60;;;;;;6268021;28;20029;-69
2022/01/07 05:10:00;;;;;;;3.28;2.35;;;19.70;46.60;;;;;;6268405;28;20363;-68
2022/01/07 05:13:01;;;;;;;4.53;2.40;;;19.70;46.50;;;;;;6267101;28;20029;-68
2022/01/07 05:16:01;;;;;;;3.70;2.55;;;19.70;46.50;;;;;;6266751;28;20128;-69
2022/01/07 05:19:04;;;;;;;3.40;2.70;;;19.70;46.50;;;;;;6267886;28;20056;-68
2022/01/07 05:22:04;;;;;;;3.53;2.50;;;19.70;46.40;;;;;;6268356;28;20044;-68
2022/01/07 05:25:06;;;;;;;3.22;2.10;;;19.80;46.40;;;;;;6268001;28;20178;-69
2022/01/07 05:28:07;;;;;;;4.18;2.60;;;19.80;46.40;;;;;;6268044;28;20028;-68
2022/01/07 05:31:07;;;;;;;3.38;2.33;;;19.80;46.40;;;;;;6267736;28;20082;-68
2022/01/07 05:34:08;;;;;;;3.88;2.60;;;19.80;47.10;;;;;;6278371;28;20025;-68
2022/01/07 05:37:10;;;;;;;2.70;2.03;;;19.80;46.40;;;;;;6266444;28;20021;-69
2022/01/07 05:40:11;;;;;;;3.55;2.45;;;19.80;46.40;;;;;;6266674;28;20478;-68
2022/01/07 05:43:11;;;;;;;2.90;2.10;;;19.80;46.40;;;;;;6268283;28;20075;-68
2022/01/07 05:46:14;;;;;;;4.28;2.50;;;19.80;46.30;;;;;;6279151;28;20021;-68
2022/01/07 05:49:15;;;;;;;3.88;2.22;;;19.80;46.20;;;;;;6292266;28;20025;-67
2022/01/07 05:52:16;;;;;;;3.80;2.33;;;19.80;46.30;;;;;;6270529;28;20146;-68
2022/01/07 05:55:17;;;;;;;3.38;2.22;;;19.80;46.30;;;;;;6284209;28;20068;-68
2022/01/07 05:58:17;;;;;;;3.47;2.20;;;19.80;46.30;;;;;;6267910;28;20029;-68
2022/01/07 06:01:18;;;;;;;4.93;2.42;;;19.80;46.30;;;;;;6261666;28;20020;-68
2022/01/07 06:04:18;;;;;;;2.85;2.15;;;19.80;46.30;;;;;;6243312;28;20487;-68
2022/01/07 06:07:20;;;;;;;3.53;2.42;;;19.80;46.30;;;;;;6265497;28;20017;-68
2022/01/07 06:10:21;;;;;;;4.20;2.25;;;19.80;46.30;;;;;;6267707;28;20380;-68
2022/01/07 06:13:21;;;;;;;3.15;2.30;;;19.80;46.30;;;;;;6266215;28;20021;-68
2022/01/07 06:16:23;;;;;;;3.30;2.20;;;19.80;46.30;;;;;;6266421;28;20065;-69
2022/01/07 06:19:23;;;;;;;3.22;2.22;;;19.80;46.30;;;;;;6271347;28;20033;-68
2022/01/07 06:22:24;;;;;;;3.88;2.35;;;19.80;46.30;;;;;;6272142;28;20095;-69
2022/01/07 06:25:24;;;;;;;4.00;2.17;;;19.80;46.40;;;;;;6272428;28;20037;-68
2022/01/07 06:28:26;;;;;;;3.63;2.50;;;19.80;46.40;;;;;;6271824;28;20033;-68
2022/01/07 06:31:26;;;;;;;3.03;2.10;;;19.80;46.40;;;;;;6270386;28;20025;-69
2022/01/07 06:34:28;;;;;;;3.33;2.20;;;19.90;46.50;;;;;;6270570;28;20021;-69
2022/01/07 06:37:28;;;;;;;3.70;2.25;;;19.90;46.60;;;;;;6271804;28;20036;-68
2022/01/07 06:40:29;;;;;;;3.38;2.33;;;19.90;46.60;;;;;;6271308;28;20033;-68
2022/01/07 06:43:30;;;;;;;3.47;2.22;;;19.90;46.60;;;;;;6271793;28;20025;-69
2022/01/07 06:46:31;;;;;;;3.28;2.30;;;19.90;46.60;;;;;;6271592;28;20235;-68
2022/01/07 06:49:31;;;;;;;3.30;2.25;;;19.90;46.60;;;;;;6271833;28;20068;-69
2022/01/07 06:52:32;;;;;;;3.05;2.17;;;19.90;46.60;;;;;;6259710;28;20030;-69
2022/01/07 06:55:33;;;;;;;2.88;2.10;;;19.90;46.60;;;;;;6248962;28;20395;-69
2022/01/07 06:58:33;;;;;;;3.30;2.40;;;19.90;46.60;;;;;;6270488;28;20017;-68
2022/01/07 07:01:34;;;;;;;3.25;2.22;;;19.90;46.70;;;;;;6268465;28;20028;-69
2022/01/07 07:04:35;;;;;;;4.35;2.50;;;19.90;46.70;;;;;;6261759;28;20064;-69
2022/01/07 07:07:36;;;;;;;3.22;2.15;;;19.90;46.70;;;;;;6265027;28;20033;-69
2022/01/07 07:10:37;;;;;;;3.83;2.33;;;19.90;46.70;;;;;;6271693;28;20029;-69
2022/01/07 07:13:37;;;;;;;3.08;2.20;;;19.90;46.70;;;;;;6273221;28;20044;-68
2022/01/07 07:16:38;;;;;;;3.08;2.30;;;19.90;46.80;;;;;;6273106;28;20155;-69
2022/01/07 07:19:38;;;;;;;2.60;1.98;;;19.90;46.80;;;;;;6272957;28;20029;-68
2022/01/07 07:22:39;;;;;;;3.67;2.33;;;19.90;46.80;;;;;;6272437;28;20484;-69
2022/01/07 07:25:39;;;;;;;2.92;2.25;;;19.90;46.80;;;;;;6272897;28;20031;-68
2022/01/07 07:28:40;;;;;;;2.45;2.15;;;19.90;46.80;;;;;;6272211;28;20486;-68
2022/01/07 07:31:44;;;;;;;3.00;2.17;;;19.90;46.80;;;;;;6271337;28;20025;-69
2022/01/07 07:34:58;;;;;;;3.00;2.10;;;19.90;46.80;;;;;;6271476;28;20037;-68
2022/01/07 07:37:58;;;;;;;3.60;2.40;;;19.90;46.80;;;;;;6271285;28;20021;-68
2022/01/07 07:40:59;;;;;;;3.45;2.33;;;19.90;46.80;;;;;;6278709;28;20017;-68
2022/01/07 07:44:00;;;;;;;3.45;2.30;;;19.90;46.80;;;;;;6272381;28;20071;-68
2022/01/07 07:47:02;;;;;;;2.30;1.80;;;19.90;46.80;;;;;;6271109;28;20490;-68
2022/01/07 07:50:03;;;;;;;2.80;2.08;;;19.90;46.80;;;;;;6271087;28;20040;-69
2022/01/07 07:53:04;;;;;;;3.40;2.08;;;19.90;46.80;;;;;;6255891;28;20033;-69
2022/01/07 07:56:05;;;;;;;2.80;2.00;;;19.90;46.80;;;;;;6247617;28;20083;-68
2022/01/07 07:59:06;;;;;;;3.67;2.13;;;19.90;46.80;;;;;;6271197;28;20029;-68
2022/01/07 08:02:09;;;;;;;4.97;2.33;;;19.90;46.80;;;;;;6270612;28;20025;-68
2022/01/07 08:05:10;;;;;;;3.38;2.13;;;19.90;46.80;;;;;;6271130;28;20025;-68
2022/01/07 08:08:11;;;;;;;2.78;2.00;;;19.90;46.80;;;;;;6270555;28;20029;-69
2022/01/07 08:11:12;;;;;;;3.35;2.15;;;19.90;46.80;;;;;;6270792;28;20021;-68
2022/01/07 08:17:32;;;;;;;3.15;2.25;;;19.90;46.80;;;;;;6272445;28;20068;-68
2022/01/07 08:20:34;;;;;;;2.83;1.92;;;19.90;46.80;;;;;;6270406;28;20074;-69
2022/01/07 08:23:37;;;;;;;3.38;2.30;;;19.90;46.80;;;;;;6274823;28;20021;-68
2022/01/07 08:26:38;;;;;;;3.38;2.20;;;19.90;46.80;;;;;;6296602;28;20103;-68
2022/01/07 08:29:40;;;;;;;4.20;2.38;;;19.90;46.80;;;;;;6271772;28;20025;-68
2022/01/07 08:36:01;;;;;;;3.28;2.25;;;19.90;46.80;;;;;;6271286;28;20025;-69
2022/01/07 08:39:06;;;;;;;3.60;2.13;;;19.90;46.80;;;;;;6271129;28;20104;-71
2022/01/07 08:42:07;;;;;;;3.05;2.10;;;19.90;46.80;;;;;;6270339;28;20071;-68
2022/01/07 08:45:07;;;;;;;3.60;2.05;;;19.90;46.80;;;;;;6270162;28;20033;-68
2022/01/07 08:48:08;;;;;;;2.78;2.00;;;19.90;46.80;;;;;;6275081;28;20536;-69
2022/01/07 08:51:09;;;;;;;3.63;2.20;;;19.90;46.80;;;;;;6294581;28;20024;-69
2022/01/07 08:54:10;;;;;;;2.80;1.70;;;19.90;46.80;;;;;;6266635;28;20033;-70
2022/01/07 08:57:10;;;;;;;3.45;2.30;;;19.90;46.80;;;;;;6256545;28;20021;-72
2022/01/07 09:00:12;;;;;;;4.93;2.10;;;19.90;46.80;;;;;;6230431;28;20096;-69
2022/01/07 09:03:13;;;;;;;3.50;2.05;;;19.90;46.90;;;;;;6219621;28;20022;-69
2022/01/07 09:06:14;;;;;;;5.65;2.17;;;19.90;46.90;;;;;;6219499;28;20057;-69
2022/01/07 09:09:15;;;;;;;5.00;2.50;;;19.80;45.90;;;;;;6220877;28;20439;-68
2022/01/07 09:12:16;;;;;;;4.43;2.40;;;19.80;45.80;;;;;;6220108;28;20507;-69
2022/01/07 09:15:17;;;;;;;7.65;2.85;;;19.80;45.60;;;;;;6211822;28;20039;-69
2022/01/07 09:18:20;;;;;;;6.47;2.92;;;19.80;45.10;;;;;;6201460;28;20072;-70
2022/01/07 09:21:21;;;;;;;9.73;2.72;;;19.80;44.60;;;;;;6221089;28;20026;-69
2022/01/07 09:24:23;;;;;;;9.05;3.55;;;19.70;43.40;;;;;;6219525;28;20410;-69
2022/01/07 09:27:24;;;;;;;11.77;3.70;;;19.70;43.00;;;;;;6220579;28;20502;-69
2022/01/07 09:30:25;;;;;;;8.20;3.58;;;19.70;42.20;;;;;;6219989;28;20022;-69
2022/01/07 09:33:26;;;;;;;9.90;3.22;;;19.70;41.90;;;;;;6212326;28;20054;-69
2022/01/07 09:36:26;;;;;;;12.43;3.75;;;19.70;41.40;;;;;;6219515;28;20048;-68
2022/01/07 09:39:36;;;;;;;9.00;3.50;;;19.70;41.00;;;;;;6218835;28;20030;-69
2022/01/07 09:42:38;;;;;;;11.82;3.45;;;19.70;40.10;;;;;;6221700;28;20101;-68
2022/01/07 09:45:39;;;;;;;7.50;3.53;;;19.70;40.30;;;;;;6220565;28;20018;-69
2022/01/07 09:48:40;;;;;;;8.68;3.50;;;19.60;40.60;;;;;;6220015;28;20032;-69
2022/01/07 09:51:41;;;;;;;9.93;3.35;;;19.70;41.00;;;;;;6208941;28;20027;-69
2022/01/07 09:54:42;;;;;;;10.02;3.22;;;19.60;39.80;;;;;;6213664;28;20105;-69
2022/01/07 09:57:43;;;;;;;9.15;3.60;;;19.60;39.70;;;;;;6224890;28;20072;-70
2022/01/07 10:00:45;;;;;;;9.32;3.10;;;19.60;40.40;;;;;;6224776;28;20087;-70
2022/01/07 10:03:52;;;;;;;9.77;3.13;;;19.60;39.10;;;;;;6224378;28;20696;-69
2022/01/07 10:07:13;;;;;;;15.57;3.00;;;19.60;39.20;;;;;;6223222;28;20080;-68
2022/01/07 10:10:17;;;;;;;7.43;3.10;;;19.60;39.00;;;;;;6223701;28;20499;-69
2022/01/07 10:13:19;;;;;;;9.43;3.40;;;19.60;38.40;;;;;;6223431;28;20026;-69
2022/01/07 10:16:22;;;;;;;9.63;3.15;;;19.60;39.10;;;;;;6224450;28;20105;-69
2022/01/07 10:19:33;;;;;;;9.45;3.47;;;19.60;38.00;;;;;;6238438;28;20045;-70
2022/01/07 10:22:54;;;;;;;7.60;3.22;;;19.60;37.80;;;;;;6224997;28;20030;-70
2022/01/07 10:25:56;;;;;;;7.50;2.90;;;19.60;38.60;;;;;;6220876;28;20030;-70
2022/01/07 10:28:57;;;;;;;6.07;2.85;;;19.60;38.40;;;;;;6223492;28;20031;-70
2022/01/07 10:32:25;;;;;;;8.88;2.70;;;19.60;38.70;;;;;;6224149;28;20537;-70
2022/01/07 10:35:27;;;;;;;12.82;3.28;;;19.60;38.30;;;;;;6224312;28;20056;-70
2022/01/07 10:38:29;;;;;;;5.97;2.50;;;19.60;38.50;;;;;;6222764;28;20456;-70
2022/01/07 10:41:29;;;;;;;7.28;2.47;;;19.60;38.40;;;;;;6215172;28;20025;-70
2022/01/07 10:44:30;;;;;;;7.63;2.33;;;19.60;38.70;;;;;;6210972;28;20034;-70
2022/01/07 10:47:30;;;;;;;5.80;2.25;;;19.60;39.00;;;;;;6223917;28;20026;-70
2022/01/07 10:50:31;;;;;;;5.38;2.08;;;19.60;39.30;;;;;;6223878;28;20104;-70
2022/01/07 10:53:32;;;;;;;5.80;2.60;;;19.70;39.60;;;;;;6212325;28;20110;-70
2022/01/07 10:56:51;;;;;;;4.70;2.08;;;19.70;39.90;;;;;;6217386;28;20033;-69
2022/01/07 11:00:07;;;;;;;4.93;2.17;;;19.60;40.00;;;;;;6214975;28;20030;-70
2022/01/07 11:03:08;;;;;;;3.90;1.70;;;19.70;40.10;;;;;;6238591;28;20495;-66
2022/01/07 11:06:09;;;;;;;4.63;1.95;;;19.70;40.20;;;;;;6228147;28;20022;-70
2022/01/07 11:09:12;;;;;;;4.22;1.98;;;19.70;40.40;;;;;;6233202;28;20030;-68
2022/01/07 11:12:14;;;;;;;3.70;1.90;;;19.70;40.60;;;;;;6222724;28;20441;-68
2022/01/07 11:15:15;;;;;;;6.03;1.90;;;19.70;40.90;;;;;;6225183;28;20498;-67
2022/01/07 11:18:15;;;;;;;5.25;2.08;;;19.70;40.90;;;;;;6224043;28;20060;-67
2022/01/07 11:21:18;;;;;;;3.28;1.67;;;19.70;41.00;;;;;;6223890;28;20033;-67
2022/01/07 11:24:50;;;;;;;4.25;2.10;;;19.70;41.10;;;;;;6222207;28;20045;-67
2022/01/07 11:27:57;;;;;;;4.43;1.85;;;19.70;41.30;;;;;;6222457;28;20045;-67
2022/01/07 11:31:14;;;;;;;3.90;1.73;;;19.70;41.50;;;;;;6223828;28;20076;-68
2022/01/07 11:34:22;;;;;;;3.22;1.90;;;19.70;41.70;;;;;;6223070;28;20069;-68
2022/01/07 11:37:37;;;;;;;4.00;1.73;;;19.70;41.90;;;;;;6222780;28;20049;-68
2022/01/07 11:40:41;;;;;;;;;;;19.70;41.50;;;;;;6222834;28;20037;-68
2022/01/07 11:43:45;;;;;;;4.53;1.73;;;19.70;41.50;;;;;;6222787;28;19912;-68
2022/01/07 11:46:45;;;;;;;4.10;1.73;;;19.80;41.90;;;;;;6222390;28;20080;-68
2022/01/07 11:50:00;;;;;;;3.78;1.80;;;19.80;42.00;;;;;;6223423;28;20297;-68
2022/01/07 11:53:05;;;;;;;4.85;1.55;;;19.80;42.10;;;;;;6199532;28;20031;-69
2022/01/07 11:56:09;;;;;;;3.20;1.60;;;19.80;42.10;;;;;;6216654;28;20439;-68
2022/01/07 11:59:15;;;;;;;4.15;1.63;;;19.80;42.40;;;;;;6222736;28;20018;-68
2022/01/07 12:02:16;;;;;;;5.53;1.45;;;19.80;42.40;;;;;;6231635;28;20025;-69
2022/01/07 12:05:31;;;;;;;4.47;1.75;;;19.80;42.40;;;;;;6247176;28;20326;-69
2022/01/07 12:08:38;;;;;;;3.67;1.60;;;19.80;42.50;;;;;;6221507;28;20060;-69
2022/01/07 12:12:02;;;;;;;2.35;1.45;;;19.80;42.60;;;;;;6212960;28;20304;-69
2022/01/07 12:15:04;;;;;;;3.25;1.65;;;19.80;42.60;;;;;;6209540;28;20050;-67
2022/01/07 12:18:11;;;;;;;4.38;1.52;;;19.80;42.60;;;;;;6221678;28;20100;-70
2022/01/07 12:21:12;;;;;;;4.97;1.70;;;19.80;42.80;;;;;;6222769;28;20022;-69
2022/01/07 12:24:24;;;;;;;4.00;1.67;;;19.80;42.80;;;;;;6222709;28;20026;-69
2022/01/07 12:27:25;;;;;;;6.28;1.60;;;19.80;42.90;;;;;;6222872;28;20077;-70
2022/01/07 12:30:26;;;;;;;5.28;1.70;;;19.80;43.00;;;;;;6223290;28;20379;-69
2022/01/07 12:33:26;;;;;;;5.47;1.50;;;19.80;43.00;;;;;;6221883;28;20084;-70
2022/01/07 12:36:36;;;;;;;2.92;1.50;;;19.80;43.10;;;;;;6226204;28;20022;-69
2022/01/07 12:39:50;;;;;;;2.85;1.73;;;19.80;43.20;;;;;;6221967;28;20030;-70
2022/01/07 12:42:51;;;;;;;5.97;1.85;;;19.80;43.30;;;;;;6220772;28;20419;-69
2022/01/07 12:46:00;;;;;;;2.50;1.35;;;19.80;43.40;;;;;;6220019;28;20173;-70
2022/01/07 12:49:01;;;;;;;4.47;1.73;;;19.80;43.40;;;;;;6211195;28;20022;-70
2022/01/07 12:52:08;;;;;;;2.38;1.25;;;19.80;43.50;;;;;;6214711;28;20084;-70
2022/01/07 12:55:10;;;;;;;2.63;1.40;;;19.80;43.60;;;;;;6196786;28;20041;-70
2022/01/07 12:58:11;;;;;;;2.83;1.52;;;19.80;43.60;;;;;;6213755;28;20438;-70
2022/01/07 13:01:29;;;;;;;2.15;1.50;;;19.80;43.70;;;;;;6216802;28;20018;-70
2022/01/07 13:04:34;;;;;;;3.08;1.75;;;19.80;43.70;;;;;;6238191;28;20475;-70
2022/01/07 13:07:42;;;;;;;3.00;1.40;;;19.80;43.80;;;;;;6220289;28;20026;-70
2022/01/07 13:10:46;;;;;;;2.92;1.52;;;19.80;43.80;;;;;;6221528;28;20419;-70
2022/01/07 13:13:46;;;;;;;2.83;1.40;;;19.80;43.90;;;;;;6221009;28;20048;-70
2022/01/07 13:16:55;;;;;;;2.25;1.40;;;19.80;43.90;;;;;;6220447;28;20026;-69
2022/01/07 13:19:57;;;;;;;2.00;1.30;;;19.80;43.90;;;;;;6219436;28;20052;-70
2022/01/07 13:22:57;;;;;;;2.95;1.40;;;19.80;44.00;;;;;;6220334;28;20069;-69
2022/01/07 13:25:58;;;;;;;2.97;1.40;;;19.80;44.10;;;;;;6219291;28;20391;-70
2022/01/07 13:29:21;;;;;;;2.35;1.45;;;19.80;44.00;;;;;;6211294;28;20026;-70
2022/01/07 13:32:24;;;;;;;3.15;1.70;;;19.80;44.80;;;;;;6202853;28;20047;-71
2022/01/07 13:35:24;;;;;;;2.10;1.25;;;19.80;44.10;;;;;;6219915;28;20030;-69
2022/01/07 13:38:26;;;;;;;3.03;1.58;;;19.80;44.10;;;;;;6225762;28;20064;-69
2022/01/07 13:41:27;;;;;;;4.90;1.55;;;19.80;44.30;;;;;;6199152;28;20482;-69
2022/01/07 13:44:29;;;;;;;2.78;1.50;;;19.90;44.40;;;;;;6221569;28;20022;-69
2022/01/07 13:47:35;;;;;;;5.60;1.20;;;19.90;44.50;;;;;;6216141;28;20033;-69
2022/01/07 13:50:39;;;;;;;2.03;1.30;;;19.90;44.40;;;;;;6217187;28;20026;-70
2022/01/07 13:53:39;;;;;;;2.30;1.27;;;19.90;44.20;;;;;;6216927;28;20490;-70
2022/01/07 13:56:45;;;;;;;4.53;1.60;;;20.00;44.10;;;;;;6216862;28;20061;-69
2022/01/07 13:59:51;;;;;;;3.30;1.67;;;20.00;44.10;;;;;;6218215;28;20391;-69
2022/01/07 14:02:56;;;;;;;4.53;1.67;;;20.00;44.10;;;;;;6218172;28;20148;-70
2022/01/07 14:06:04;;;;;;;1.85;1.27;;;20.00;44.10;;;;;;6218618;28;20034;-69
2022/01/07 14:09:30;;;;;;;1.73;1.10;;;20.00;44.00;;;;;;6215272;28;20026;-69
2022/01/07 14:12:32;;;;;;;3.38;1.20;;;20.00;44.10;;;;;;6208901;28;20045;-69
2022/01/07 14:15:42;;;;;;;2.03;1.30;;;20.00;44.30;;;;;;6219842;28;20080;-69
2022/01/07 14:18:57;;;;;;;3.70;1.30;;;20.00;44.30;;;;;;6218720;28;20368;-69
2022/01/07 14:21:58;;;;;;;5.82;1.35;;;20.00;44.40;;;;;;6220188;28;20021;-69
2022/01/07 14:24:59;;;;;;;5.75;1.52;;;20.00;44.60;;;;;;6219257;28;20105;-69
2022/01/07 14:27:59;;;;;;;4.50;1.60;;;20.00;44.60;;;;;;6218620;28;20375;-69
2022/01/07 14:31:00;;;;;;;2.45;1.38;;;20.00;44.70;;;;;;6220062;28;20437;-69
2022/01/07 14:34:01;;;;;;;2.75;1.42;;;20.00;44.60;;;;;;6219689;28;20061;-69
2022/01/07 14:37:02;;;;;;;3.20;1.30;;;20.00;44.60;;;;;;6219865;28;20048;-69
2022/01/07 14:40:04;;;;;;;2.30;1.30;;;20.00;44.70;;;;;;6222732;28;20391;-69
2022/01/07 14:43:05;;;;;;;1.88;1.15;;;20.00;44.70;;;;;;6223854;28;20450;-69
2022/01/07 14:46:09;;;;;;;2.45;1.40;;;19.90;44.70;;;;;;6224354;28;20088;-69
2022/01/07 14:49:11;;;;;;;7.25;1.42;;;19.90;44.70;;;;;;6223798;28;20053;-70
2022/01/07 14:52:11;;;;;;;1.98;1.10;;;19.90;44.80;;;;;;6215893;28;20022;-69
2022/01/07 14:55:12;;;;;;;2.42;1.40;;;19.90;44.80;;;;;;6217534;28;20100;-69
2022/01/07 14:58:13;;;;;;;2.95;1.25;;;19.90;44.80;;;;;;6240270;28;20032;-69
2022/01/07 15:01:14;;;;;;;2.35;1.42;;;19.90;45.60;;;;;;6238805;28;20367;-69
2022/01/07 15:04:14;;;;;;;1.63;1.02;;;19.90;44.90;;;;;;6238919;28;20097;-69
2022/01/07 15:07:15;;;;;;;2.35;1.40;;;19.90;44.90;;;;;;6223253;28;20110;-68
2022/01/07 15:10:16;;;;;;;5.07;1.35;;;19.90;44.90;;;;;;6223683;28;20124;-69
2022/01/07 15:13:16;;;;;;;2.33;1.00;;;19.90;44.90;;;;;;6223018;28;20109;-69
2022/01/07 15:16:35;;;;;;;2.70;1.35;;;19.90;45.00;;;;;;6207080;28;20026;-69
2022/01/07 15:19:36;;;;;;;1.95;1.25;;;19.90;45.00;;;;;;6215269;28;20163;-69
2022/01/07 15:22:37;;;;;;;1.80;1.20;;;19.90;45.00;;;;;;6222924;28;20022;-69
2022/01/07 15:25:37;;;;;;;2.83;1.17;;;19.90;45.00;;;;;;6222622;28;20529;-69
2022/01/07 15:28:38;;;;;;;1.98;1.20;;;19.90;45.10;;;;;;6221640;28;20037;-69
2022/01/07 15:31:40;;;;;;;1.77;1.13;;;19.90;45.10;;;;;;6221452;28;20109;-69
2022/01/07 15:34:41;;;;;;;1.52;0.93;;;19.90;45.10;;;;;;6222058;28;20049;-69
2022/01/07 15:37:42;;;;;;;2.47;1.30;;;19.90;45.20;;;;;;6209579;28;20263;-69
2022/01/07 15:40:42;;;;;;;3.35;1.10;;;19.90;45.20;;;;;;6214213;28;20044;-68
2022/01/07 15:43:43;;;;;;;2.95;1.27;;;19.90;45.20;;;;;;6222834;28;20065;-71
2022/01/07 15:46:44;;;;;;;1.75;1.13;;;19.90;45.20;;;;;;6220876;28;20093;-69
2022/01/07 15:49:44;;;;;;;2.47;1.42;;;19.90;45.30;;;;;;6220852;28;20402;-70
2022/01/07 15:52:45;;;;;;;2.78;1.70;;;19.80;45.10;;;;;;6222437;28;20030;-69
2022/01/07 15:55:46;;;;;;;3.65;1.40;;;19.80;44.30;;;;;;6234562;28;20532;-71
2022/01/07 15:58:48;;;;;;;6.60;2.10;;;19.80;43.70;;;;;;6212653;28;20077;-71